JIA5045 KBOS-CYYZ
Flight info
| Callsign | JIA5045 |
|---|---|
| Flight time | 1h 25m |
| Altitude | 32000 |
| Route | HYLND7 HYLND DCT CAM Q822 GONZZ DCT WOZEE LINNG3 |
| Aircraft | CRJ9/M-VGD/A |
Departure
| Time | 2026-05-08 00:29 |
|---|---|
| Airport | Boston Logan International Airport (KBOS) |
Arrival
| Time | 2026-05-08 01:55 |
|---|---|
| Airport | Toronto Pearson International Airport (CYYZ) |
| Time | Latitude | Longitude | Altitude | Speed | Heading |
|---|---|---|---|---|---|
| 2026-05-08 00:02 | 42.36129 | -71.02159 | 24 ft | 0 kts | 88° |
| 2026-05-08 00:15 | 42.36129 | -71.02160 | 4 ft | 2 kts | 88° |
| 2026-05-08 00:15 | 42.36128 | -71.02183 | 24 ft | 2 kts | 88° |
| 2026-05-08 00:15 | 42.36127 | -71.02206 | 25 ft | 2 kts | 88° |
| 2026-05-08 00:16 | 42.36127 | -71.02228 | 24 ft | 2 kts | 88° |
| 2026-05-08 00:16 | 42.36126 | -71.02250 | 26 ft | 2 kts | 88° |
| 2026-05-08 00:16 | 42.36126 | -71.02271 | 26 ft | 2 kts | 88° |
| 2026-05-08 00:16 | 42.36125 | -71.02278 | 26 ft | 0 kts | 88° |
| 2026-05-08 00:18 | 42.36125 | -71.02277 | 26 ft | 0 kts | 90° |
| 2026-05-08 00:18 | 42.36125 | -71.02276 | 26 ft | 0 kts | 98° |
| 2026-05-08 00:18 | 42.36124 | -71.02274 | 27 ft | 2 kts | 126° |
| 2026-05-08 00:18 | 42.36102 | -71.02233 | 26 ft | 9 kts | 123° |
| 2026-05-08 00:19 | 42.36066 | -71.02152 | 23 ft | 10 kts | 120° |
| 2026-05-08 00:19 | 42.36031 | -71.02073 | 24 ft | 10 kts | 121° |
| 2026-05-08 00:19 | 42.35995 | -71.01993 | 25 ft | 10 kts | 121° |
| 2026-05-08 00:19 | 42.35958 | -71.01907 | 25 ft | 10 kts | 121° |
| 2026-05-08 00:20 | 42.35924 | -71.01822 | 26 ft | 10 kts | 112° |
| 2026-05-08 00:20 | 42.35909 | -71.01743 | 28 ft | 8 kts | 102° |
| 2026-05-08 00:20 | 42.35898 | -71.01669 | 29 ft | 8 kts | 101° |
| 2026-05-08 00:20 | 42.35893 | -71.01591 | 28 ft | 9 kts | 82° |
| 2026-05-08 00:21 | 42.35938 | -71.01526 | 27 ft | 11 kts | 23° |
| 2026-05-08 00:21 | 42.36013 | -71.01488 | 26 ft | 12 kts | 19° |
| 2026-05-08 00:21 | 42.36091 | -71.01450 | 27 ft | 12 kts | 19° |
| 2026-05-08 00:21 | 42.36172 | -71.01412 | 25 ft | 13 kts | 19° |
| 2026-05-08 00:22 | 42.36265 | -71.01368 | 23 ft | 12 kts | 19° |
| 2026-05-08 00:22 | 42.36320 | -71.01321 | 23 ft | 8 kts | 62° |
| 2026-05-08 00:22 | 42.36316 | -71.01270 | 25 ft | 5 kts | 118° |
| 2026-05-08 00:22 | 42.36292 | -71.01215 | 26 ft | 13 kts | 121° |
| 2026-05-08 00:23 | 42.36247 | -71.01105 | 25 ft | 14 kts | 114° |
| 2026-05-08 00:23 | 42.36217 | -71.01014 | 24 ft | 11 kts | 114° |
| 2026-05-08 00:23 | 42.36187 | -71.00919 | 24 ft | 12 kts | 114° |
| 2026-05-08 00:23 | 42.36151 | -71.00810 | 22 ft | 14 kts | 114° |
| 2026-05-08 00:24 | 42.36112 | -71.00677 | 21 ft | 16 kts | 108° |
| 2026-05-08 00:24 | 42.36077 | -71.00541 | 23 ft | 15 kts | 109° |
| 2026-05-08 00:24 | 42.36044 | -71.00410 | 25 ft | 15 kts | 109° |
| 2026-05-08 00:24 | 42.36011 | -71.00281 | 25 ft | 14 kts | 108° |
| 2026-05-08 00:25 | 42.35980 | -71.00161 | 27 ft | 13 kts | 110° |
| 2026-05-08 00:25 | 42.35935 | -71.00051 | 27 ft | 14 kts | 130° |
| 2026-05-08 00:25 | 42.35869 | -70.99957 | 28 ft | 14 kts | 134° |
| 2026-05-08 00:25 | 42.35800 | -70.99866 | 29 ft | 14 kts | 136° |
| 2026-05-08 00:26 | 42.35720 | -70.99760 | 28 ft | 18 kts | 135° |
| 2026-05-08 00:26 | 42.35627 | -70.99637 | 26 ft | 19 kts | 135° |
| 2026-05-08 00:26 | 42.35529 | -70.99506 | 23 ft | 15 kts | 135° |
| 2026-05-08 00:26 | 42.35491 | -70.99417 | 24 ft | 10 kts | 93° |
| 2026-05-08 00:27 | 42.35501 | -70.99329 | 27 ft | 9 kts | 71° |
| 2026-05-08 00:27 | 42.35547 | -70.99284 | 25 ft | 8 kts | 346° |
| 2026-05-08 00:27 | 42.35571 | -70.99306 | 25 ft | 0 kts | 316° |
| 2026-05-08 00:29 | 42.35718 | -70.99503 | 26 ft | 69 kts | 315° |
| 2026-05-08 00:29 | 42.36243 | -71.00203 | 26 ft | 139 kts | 314° |
| 2026-05-08 00:29 | 42.36998 | -71.01198 | 553 ft | 159 kts | 314° |
| 2026-05-08 00:29 | 42.37739 | -71.02298 | 1523 ft | 157 kts | 313° |
| 2026-05-08 00:30 | 42.38516 | -71.03362 | 2384 ft | 165 kts | 310° |
| 2026-05-08 00:30 | 42.39008 | -71.04825 | 2976 ft | 179 kts | 288° |
| 2026-05-08 00:30 | 42.39468 | -71.06463 | 3605 ft | 193 kts | 294° |
| 2026-05-08 00:30 | 42.40077 | -71.08160 | 4177 ft | 211 kts | 297° |
| 2026-05-08 00:31 | 42.40858 | -71.09927 | 4752 ft | 226 kts | 313° |
| 2026-05-08 00:31 | 42.42226 | -71.10943 | 5461 ft | 228 kts | 340° |
| 2026-05-08 00:31 | 42.43760 | -71.11523 | 6187 ft | 229 kts | 342° |
| 2026-05-08 00:31 | 42.45277 | -71.12098 | 6852 ft | 229 kts | 340° |
| 2026-05-08 00:32 | 42.46807 | -71.12789 | 7556 ft | 228 kts | 336° |
| 2026-05-08 00:32 | 42.48278 | -71.13574 | 8257 ft | 227 kts | 334° |
| 2026-05-08 00:32 | 42.49670 | -71.14351 | 8931 ft | 226 kts | 333° |
| 2026-05-08 00:32 | 42.51164 | -71.15177 | 9676 ft | 225 kts | 334° |
| 2026-05-08 00:33 | 42.52657 | -71.15937 | 10200 ft | 235 kts | 334° |
| 2026-05-08 00:33 | 42.54236 | -71.16682 | 10768 ft | 245 kts | 335° |
| 2026-05-08 00:33 | 42.55888 | -71.17437 | 11341 ft | 255 kts | 335° |
| 2026-05-08 00:33 | 42.57608 | -71.18204 | 11920 ft | 266 kts | 335° |
| 2026-05-08 00:34 | 42.59414 | -71.18984 | 12518 ft | 275 kts | 334° |
| 2026-05-08 00:34 | 42.61250 | -71.19798 | 13121 ft | 284 kts | 333° |
| 2026-05-08 00:34 | 42.63161 | -71.20663 | 13616 ft | 298 kts | 333° |
| 2026-05-08 00:34 | 42.65192 | -71.21595 | 13803 ft | 320 kts | 333° |
| 2026-05-08 00:35 | 42.67382 | -71.22602 | 13923 ft | 344 kts | 334° |
| 2026-05-08 00:35 | 42.69734 | -71.23680 | 13966 ft | 369 kts | 334° |
| 2026-05-08 00:35 | 42.72241 | -71.24821 | 14086 ft | 388 kts | 335° |
| 2026-05-08 00:35 | 42.74704 | -71.26291 | 14544 ft | 383 kts | 319° |
| 2026-05-08 00:36 | 42.76502 | -71.28855 | 15066 ft | 372 kts | 296° |
| 2026-05-08 00:36 | 42.77744 | -71.31943 | 15607 ft | 373 kts | 290° |
| 2026-05-08 00:36 | 42.78826 | -71.35164 | 16144 ft | 375 kts | 287° |
| 2026-05-08 00:36 | 42.79539 | -71.38548 | 16727 ft | 370 kts | 275° |
| 2026-05-08 00:37 | 42.79892 | -71.42011 | 17405 ft | 369 kts | 272° |
| 2026-05-08 00:37 | 42.80195 | -71.45470 | 18124 ft | 367 kts | 271° |
| 2026-05-08 00:37 | 42.80512 | -71.48919 | 18792 ft | 365 kts | 271° |
| 2026-05-08 00:38 | 42.81215 | -71.55717 | 20157 ft | 360 kts | 272° |
| 2026-05-08 00:38 | 42.81585 | -71.59079 | 20883 ft | 357 kts | 272° |
| 2026-05-08 00:38 | 42.81953 | -71.62399 | 21593 ft | 353 kts | 272° |
| 2026-05-08 00:38 | 42.82315 | -71.65684 | 22325 ft | 348 kts | 272° |
| 2026-05-08 00:39 | 42.82670 | -71.68933 | 22992 ft | 346 kts | 272° |
| 2026-05-08 00:39 | 42.83023 | -71.72178 | 23550 ft | 345 kts | 272° |
| 2026-05-08 00:39 | 42.83367 | -71.75365 | 24054 ft | 344 kts | 271° |
| 2026-05-08 00:39 | 42.83713 | -71.78585 | 24493 ft | 344 kts | 271° |
| 2026-05-08 00:40 | 42.84061 | -71.81810 | 24922 ft | 344 kts | 272° |
| 2026-05-08 00:40 | 42.84411 | -71.85030 | 25343 ft | 344 kts | 272° |
| 2026-05-08 00:40 | 42.84758 | -71.88256 | 25789 ft | 343 kts | 271° |
| 2026-05-08 00:40 | 42.85100 | -71.91475 | 26280 ft | 342 kts | 271° |
| 2026-05-08 00:41 | 42.85444 | -71.94687 | 26747 ft | 341 kts | 271° |
| 2026-05-08 00:41 | 42.85783 | -71.97867 | 27203 ft | 339 kts | 271° |
| 2026-05-08 00:41 | 42.86120 | -72.01045 | 27669 ft | 337 kts | 271° |
| 2026-05-08 00:41 | 42.86456 | -72.04197 | 28140 ft | 334 kts | 271° |
| 2026-05-08 00:42 | 42.86787 | -72.07317 | 28620 ft | 332 kts | 271° |
| 2026-05-08 00:42 | 42.87115 | -72.10411 | 29078 ft | 328 kts | 271° |
| 2026-05-08 00:42 | 42.87441 | -72.13487 | 29578 ft | 325 kts | 271° |
| 2026-05-08 00:42 | 42.87756 | -72.16511 | 30056 ft | 321 kts | 271° |
| 2026-05-08 00:43 | 42.88068 | -72.19513 | 30501 ft | 318 kts | 271° |
| 2026-05-08 00:43 | 42.88377 | -72.22477 | 30922 ft | 313 kts | 271° |
| 2026-05-08 00:43 | 42.88683 | -72.25398 | 31356 ft | 309 kts | 271° |
| 2026-05-08 00:43 | 42.88981 | -72.28272 | 31655 ft | 311 kts | 271° |
| 2026-05-08 00:44 | 42.89281 | -72.31203 | 31749 ft | 315 kts | 271° |
| 2026-05-08 00:44 | 42.89894 | -72.37207 | 31840 ft | 328 kts | 271° |
| 2026-05-08 00:45 | 42.90535 | -72.43496 | 31858 ft | 342 kts | 271° |
| 2026-05-08 00:45 | 42.91196 | -72.50044 | 31881 ft | 355 kts | 271° |
| 2026-05-08 00:46 | 42.91881 | -72.56840 | 31863 ft | 367 kts | 271° |
| 2026-05-08 00:46 | 42.92579 | -72.63749 | 31870 ft | 366 kts | 271° |
| 2026-05-08 00:47 | 42.93270 | -72.70608 | 31859 ft | 366 kts | 271° |
| 2026-05-08 00:47 | 42.93949 | -72.77496 | 31837 ft | 366 kts | 271° |
| 2026-05-08 00:48 | 42.94630 | -72.84373 | 31862 ft | 365 kts | 271° |
| 2026-05-08 00:48 | 42.95299 | -72.91246 | 31835 ft | 365 kts | 271° |
| 2026-05-08 00:49 | 42.95972 | -72.98120 | 31890 ft | 366 kts | 271° |
| 2026-05-08 00:49 | 42.96635 | -73.05018 | 31860 ft | 367 kts | 271° |
| 2026-05-08 00:50 | 42.97299 | -73.11940 | 31869 ft | 369 kts | 271° |
| 2026-05-08 00:50 | 42.97965 | -73.18900 | 31867 ft | 370 kts | 271° |
| 2026-05-08 00:51 | 42.98635 | -73.25859 | 31816 ft | 369 kts | 271° |
| 2026-05-08 00:51 | 42.99276 | -73.32794 | 31871 ft | 366 kts | 270° |
| 2026-05-08 00:52 | 42.99672 | -73.39634 | 31865 ft | 361 kts | 267° |
| 2026-05-08 00:52 | 42.99806 | -73.46454 | 31862 ft | 358 kts | 266° |
| 2026-05-08 00:53 | 42.99946 | -73.52145 | 31861 ft | 357 kts | 267° |
| 2026-05-08 00:53 | 43.00135 | -73.58900 | 31865 ft | 355 kts | 266° |
| 2026-05-08 00:54 | 43.00277 | -73.65634 | 31928 ft | 355 kts | 266° |
| 2026-05-08 00:54 | 43.00431 | -73.72358 | 31891 ft | 357 kts | 266° |
| 2026-05-08 00:55 | 43.00581 | -73.79150 | 31880 ft | 358 kts | 266° |
| 2026-05-08 00:55 | 43.00726 | -73.85960 | 31881 ft | 359 kts | 266° |
| 2026-05-08 00:56 | 43.00869 | -73.92787 | 31872 ft | 360 kts | 266° |
| 2026-05-08 00:56 | 43.01006 | -73.99626 | 31883 ft | 360 kts | 266° |
| 2026-05-08 00:57 | 43.01138 | -74.06471 | 31895 ft | 361 kts | 266° |
| 2026-05-08 00:57 | 43.01270 | -74.13346 | 31895 ft | 362 kts | 266° |
| 2026-05-08 00:58 | 43.01397 | -74.20237 | 31894 ft | 363 kts | 266° |
| 2026-05-08 00:58 | 43.01551 | -74.27149 | 31897 ft | 364 kts | 267° |
| 2026-05-08 00:59 | 43.01799 | -74.34076 | 31902 ft | 366 kts | 268° |
| 2026-05-08 00:59 | 43.02108 | -74.41029 | 31913 ft | 368 kts | 269° |
| 2026-05-08 01:00 | 43.02418 | -74.48021 | 31909 ft | 369 kts | 269° |
| 2026-05-08 01:00 | 43.02725 | -74.55029 | 31907 ft | 370 kts | 269° |
| 2026-05-08 01:01 | 43.03030 | -74.62060 | 31918 ft | 371 kts | 269° |
| 2026-05-08 01:01 | 43.03331 | -74.69108 | 31915 ft | 372 kts | 269° |
| 2026-05-08 01:02 | 43.03626 | -74.76177 | 31911 ft | 372 kts | 269° |
| 2026-05-08 01:02 | 43.03915 | -74.83168 | 31913 ft | 370 kts | 268° |
| 2026-05-08 01:03 | 43.04207 | -74.90170 | 31917 ft | 368 kts | 268° |
| 2026-05-08 01:03 | 43.04483 | -74.97147 | 31911 ft | 367 kts | 268° |
| 2026-05-08 01:04 | 43.04757 | -75.04092 | 31917 ft | 365 kts | 268° |
| 2026-05-08 01:04 | 43.05029 | -75.11020 | 31885 ft | 364 kts | 269° |
| 2026-05-08 01:05 | 43.05294 | -75.17921 | 31912 ft | 362 kts | 268° |
| 2026-05-08 01:05 | 43.05553 | -75.24787 | 31915 ft | 361 kts | 268° |
| 2026-05-08 01:06 | 43.05814 | -75.31643 | 31920 ft | 360 kts | 268° |
| 2026-05-08 01:06 | 43.06058 | -75.38424 | 31917 ft | 360 kts | 268° |
| 2026-05-08 01:07 | 43.06254 | -75.45281 | 31933 ft | 362 kts | 268° |
| 2026-05-08 01:07 | 43.06451 | -75.52197 | 31925 ft | 364 kts | 268° |
| 2026-05-08 01:08 | 43.06638 | -75.59166 | 31922 ft | 366 kts | 268° |
| 2026-05-08 01:08 | 43.06822 | -75.66109 | 31910 ft | 368 kts | 268° |
| 2026-05-08 01:09 | 43.06999 | -75.73116 | 31911 ft | 369 kts | 268° |
| 2026-05-08 01:09 | 43.07174 | -75.80142 | 31938 ft | 370 kts | 268° |
| 2026-05-08 01:10 | 43.07338 | -75.87211 | 31910 ft | 373 kts | 269° |
| 2026-05-08 01:10 | 43.07511 | -75.94310 | 31921 ft | 374 kts | 268° |
| 2026-05-08 01:11 | 43.07677 | -76.01445 | 31924 ft | 375 kts | 268° |
| 2026-05-08 01:11 | 43.07836 | -76.08595 | 31924 ft | 377 kts | 268° |
| 2026-05-08 01:12 | 43.07992 | -76.15725 | 31949 ft | 378 kts | 269° |
| 2026-05-08 01:12 | 43.08138 | -76.22940 | 31929 ft | 380 kts | 269° |
| 2026-05-08 01:13 | 43.08290 | -76.30180 | 31925 ft | 382 kts | 269° |
| 2026-05-08 01:13 | 43.08437 | -76.37452 | 31924 ft | 383 kts | 269° |
| 2026-05-08 01:14 | 43.08577 | -76.44739 | 31921 ft | 384 kts | 269° |
| 2026-05-08 01:14 | 43.08713 | -76.52046 | 31942 ft | 385 kts | 269° |
| 2026-05-08 01:15 | 43.08841 | -76.59387 | 31926 ft | 386 kts | 269° |
| 2026-05-08 01:15 | 43.08959 | -76.66740 | 31926 ft | 387 kts | 268° |
| 2026-05-08 01:16 | 43.08668 | -76.74096 | 31928 ft | 387 kts | 263° |
| 2026-05-08 01:16 | 43.08100 | -76.81413 | 31924 ft | 387 kts | 263° |
| 2026-05-08 01:17 | 43.07558 | -76.88683 | 31655 ft | 381 kts | 263° |
| 2026-05-08 01:17 | 43.07310 | -76.92271 | 31373 ft | 377 kts | 263° |
| 2026-05-08 01:17 | 43.07065 | -76.95818 | 31135 ft | 375 kts | 263° |
| 2026-05-08 01:17 | 43.06820 | -76.99350 | 30896 ft | 372 kts | 263° |
| 2026-05-08 01:18 | 43.06576 | -77.02865 | 30660 ft | 370 kts | 263° |
| 2026-05-08 01:18 | 43.06334 | -77.06313 | 30427 ft | 368 kts | 263° |
| 2026-05-08 01:18 | 43.06091 | -77.09785 | 30197 ft | 366 kts | 263° |
| 2026-05-08 01:18 | 43.05850 | -77.13241 | 29956 ft | 364 kts | 263° |
| 2026-05-08 01:19 | 43.05830 | -77.13521 | 29932 ft | 364 kts | 263° |
| 2026-05-08 01:19 | 43.05504 | -77.18086 | 29543 ft | 362 kts | 263° |
| 2026-05-08 01:19 | 43.05262 | -77.21506 | 29261 ft | 361 kts | 263° |
| 2026-05-08 01:20 | 43.05015 | -77.24914 | 28990 ft | 360 kts | 263° |
| 2026-05-08 01:20 | 43.04771 | -77.28316 | 28709 ft | 359 kts | 263° |
| 2026-05-08 01:20 | 43.04524 | -77.31717 | 28429 ft | 359 kts | 263° |
| 2026-05-08 01:20 | 43.04277 | -77.35112 | 28155 ft | 359 kts | 263° |
| 2026-05-08 01:21 | 43.04029 | -77.38503 | 27886 ft | 358 kts | 263° |
| 2026-05-08 01:21 | 43.03784 | -77.41850 | 27616 ft | 358 kts | 263° |
| 2026-05-08 01:21 | 43.03540 | -77.45197 | 27361 ft | 358 kts | 264° |
| 2026-05-08 01:21 | 43.03290 | -77.48591 | 27095 ft | 358 kts | 263° |
| 2026-05-08 01:22 | 43.03038 | -77.51980 | 26836 ft | 358 kts | 263° |
| 2026-05-08 01:22 | 43.02788 | -77.55370 | 26572 ft | 359 kts | 264° |
| 2026-05-08 01:22 | 43.02535 | -77.58770 | 26321 ft | 359 kts | 264° |
| 2026-05-08 01:22 | 43.02277 | -77.62167 | 26082 ft | 360 kts | 264° |
| 2026-05-08 01:23 | 43.02020 | -77.65575 | 25829 ft | 361 kts | 264° |
| 2026-05-08 01:23 | 43.01762 | -77.68985 | 25577 ft | 362 kts | 264° |
| 2026-05-08 01:23 | 43.01501 | -77.72411 | 25335 ft | 363 kts | 264° |
| 2026-05-08 01:23 | 43.01240 | -77.75853 | 25089 ft | 364 kts | 264° |
| 2026-05-08 01:24 | 43.00979 | -77.79291 | 24842 ft | 365 kts | 264° |
| 2026-05-08 01:24 | 43.00713 | -77.82741 | 24613 ft | 366 kts | 264° |
| 2026-05-08 01:24 | 43.00444 | -77.86204 | 24374 ft | 367 kts | 264° |
| 2026-05-08 01:24 | 43.00179 | -77.89681 | 24139 ft | 368 kts | 264° |
| 2026-05-08 01:25 | 42.99908 | -77.93156 | 23907 ft | 369 kts | 264° |
| 2026-05-08 01:25 | 42.99634 | -77.96644 | 23674 ft | 370 kts | 265° |
| 2026-05-08 01:25 | 42.99363 | -78.00137 | 23418 ft | 370 kts | 264° |
| 2026-05-08 01:25 | 42.99091 | -78.03595 | 23137 ft | 371 kts | 264° |
| 2026-05-08 01:26 | 42.98812 | -78.07099 | 22854 ft | 371 kts | 264° |
| 2026-05-08 01:26 | 42.98536 | -78.10611 | 22575 ft | 372 kts | 264° |
| 2026-05-08 01:26 | 42.98256 | -78.14122 | 22298 ft | 372 kts | 264° |
| 2026-05-08 01:26 | 42.97975 | -78.17637 | 22020 ft | 373 kts | 264° |
| 2026-05-08 01:27 | 42.97693 | -78.21155 | 21751 ft | 373 kts | 264° |
| 2026-05-08 01:27 | 42.97410 | -78.24673 | 21491 ft | 374 kts | 264° |
| 2026-05-08 01:27 | 42.97125 | -78.28208 | 21213 ft | 374 kts | 264° |
| 2026-05-08 01:27 | 42.96841 | -78.31736 | 20948 ft | 374 kts | 264° |
| 2026-05-08 01:28 | 42.96553 | -78.35274 | 20685 ft | 375 kts | 264° |
| 2026-05-08 01:28 | 42.96264 | -78.38805 | 20423 ft | 375 kts | 264° |
| 2026-05-08 01:28 | 42.95976 | -78.42345 | 20165 ft | 375 kts | 264° |
| 2026-05-08 01:28 | 42.95683 | -78.45890 | 19912 ft | 376 kts | 264° |
| 2026-05-08 01:29 | 42.95388 | -78.49429 | 19665 ft | 376 kts | 264° |
| 2026-05-08 01:29 | 42.95096 | -78.52983 | 19413 ft | 376 kts | 264° |
| 2026-05-08 01:29 | 42.94802 | -78.56497 | 19217 ft | 375 kts | 264° |
| 2026-05-08 01:29 | 42.94505 | -78.60033 | 19022 ft | 374 kts | 264° |
| 2026-05-08 01:30 | 42.94213 | -78.63552 | 18811 ft | 374 kts | 264° |
| 2026-05-08 01:30 | 42.93917 | -78.67080 | 18621 ft | 373 kts | 264° |
| 2026-05-08 01:30 | 42.93976 | -78.70548 | 18404 ft | 373 kts | 283° |
| 2026-05-08 01:30 | 42.94939 | -78.73834 | 18217 ft | 373 kts | 293° |
| 2026-05-08 01:31 | 42.96015 | -78.77053 | 18004 ft | 373 kts | 293° |
| 2026-05-08 01:31 | 42.97155 | -78.80237 | 17786 ft | 374 kts | 297° |
| 2026-05-08 01:31 | 42.98692 | -78.83112 | 17566 ft | 376 kts | 308° |
| 2026-05-08 01:31 | 43.00430 | -78.85795 | 17348 ft | 377 kts | 309° |
| 2026-05-08 01:32 | 43.02172 | -78.88458 | 17189 ft | 375 kts | 309° |
| 2026-05-08 01:32 | 43.03874 | -78.91160 | 17022 ft | 374 kts | 307° |
| 2026-05-08 01:32 | 43.05518 | -78.93893 | 16859 ft | 373 kts | 307° |
| 2026-05-08 01:32 | 43.07166 | -78.96642 | 16695 ft | 373 kts | 307° |
| 2026-05-08 01:33 | 43.08810 | -78.99385 | 16580 ft | 371 kts | 307° |
| 2026-05-08 01:33 | 43.10437 | -79.02105 | 16548 ft | 368 kts | 307° |
| 2026-05-08 01:33 | 43.12037 | -79.04768 | 16519 ft | 365 kts | 307° |
| 2026-05-08 01:33 | 43.13586 | -79.07365 | 16514 ft | 362 kts | 307° |
| 2026-05-08 01:34 | 43.15188 | -79.10061 | 16509 ft | 350 kts | 307° |
| 2026-05-08 01:34 | 43.16723 | -79.12621 | 16154 ft | 346 kts | 307° |
| 2026-05-08 01:34 | 43.18244 | -79.15167 | 15749 ft | 344 kts | 307° |
| 2026-05-08 01:34 | 43.19753 | -79.17700 | 15355 ft | 342 kts | 306° |
| 2026-05-08 01:35 | 43.21258 | -79.20221 | 14962 ft | 340 kts | 306° |
| 2026-05-08 01:35 | 43.22751 | -79.22724 | 14586 ft | 338 kts | 306° |
| 2026-05-08 01:35 | 43.24235 | -79.25219 | 14210 ft | 337 kts | 306° |
| 2026-05-08 01:35 | 43.25715 | -79.27698 | 13841 ft | 335 kts | 306° |
| 2026-05-08 01:36 | 43.27189 | -79.30174 | 13433 ft | 334 kts | 306° |
| 2026-05-08 01:36 | 43.28862 | -79.32383 | 12997 ft | 339 kts | 323° |
| 2026-05-08 01:36 | 43.30903 | -79.33989 | 12601 ft | 337 kts | 326° |
| 2026-05-08 01:36 | 43.32967 | -79.35598 | 12188 ft | 335 kts | 326° |
| 2026-05-08 01:37 | 43.34960 | -79.37167 | 11821 ft | 333 kts | 327° |
| 2026-05-08 01:37 | 43.37089 | -79.38458 | 11427 ft | 335 kts | 335° |
| 2026-05-08 01:37 | 43.39263 | -79.39460 | 11046 ft | 334 kts | 339° |
| 2026-05-08 01:37 | 43.41471 | -79.40345 | 10666 ft | 332 kts | 340° |
| 2026-05-08 01:38 | 43.43687 | -79.41214 | 10286 ft | 329 kts | 340° |
| 2026-05-08 01:38 | 43.45873 | -79.42097 | 9913 ft | 325 kts | 339° |
| 2026-05-08 01:38 | 43.48069 | -79.42799 | 9485 ft | 328 kts | 353° |
| 2026-05-08 01:38 | 43.50306 | -79.42151 | 9061 ft | 336 kts | 23° |
| 2026-05-08 01:39 | 43.52127 | -79.40133 | 8669 ft | 339 kts | 46° |
| 2026-05-08 01:39 | 43.53143 | -79.38505 | 8413 ft | 337 kts | 47° |
| 2026-05-08 01:39 | 43.54624 | -79.36017 | 8040 ft | 334 kts | 49° |
| 2026-05-08 01:39 | 43.56058 | -79.33520 | 7655 ft | 331 kts | 50° |
| 2026-05-08 01:40 | 43.57464 | -79.31028 | 7266 ft | 328 kts | 50° |
| 2026-05-08 01:40 | 43.58852 | -79.28547 | 6885 ft | 324 kts | 50° |
| 2026-05-08 01:40 | 43.60211 | -79.26113 | 6502 ft | 315 kts | 50° |
| 2026-05-08 01:40 | 43.61522 | -79.23763 | 6199 ft | 302 kts | 50° |
| 2026-05-08 01:41 | 43.62767 | -79.21529 | 6072 ft | 285 kts | 50° |
| 2026-05-08 01:41 | 43.63943 | -79.19418 | 6003 ft | 269 kts | 50° |
| 2026-05-08 01:41 | 43.65047 | -79.17426 | 5972 ft | 253 kts | 50° |
| 2026-05-08 01:41 | 43.66118 | -79.15494 | 5967 ft | 253 kts | 50° |
| 2026-05-08 01:42 | 43.67186 | -79.13567 | 5969 ft | 253 kts | 50° |
| 2026-05-08 01:42 | 43.68257 | -79.11636 | 5975 ft | 252 kts | 50° |
| 2026-05-08 01:42 | 43.69370 | -79.09777 | 5969 ft | 250 kts | 37° |
| 2026-05-08 01:42 | 43.70905 | -79.08860 | 5971 ft | 239 kts | 359° |
| 2026-05-08 01:43 | 43.72448 | -79.09325 | 6011 ft | 228 kts | 333° |
| 2026-05-08 01:43 | 43.73909 | -79.10208 | 6010 ft | 229 kts | 332° |
| 2026-05-08 01:43 | 43.75351 | -79.11137 | 6007 ft | 229 kts | 330° |
| 2026-05-08 01:43 | 43.76787 | -79.12097 | 6001 ft | 230 kts | 330° |
| 2026-05-08 01:44 | 43.78224 | -79.13078 | 5998 ft | 230 kts | 330° |
| 2026-05-08 01:44 | 43.79657 | -79.14067 | 6004 ft | 229 kts | 330° |
| 2026-05-08 01:44 | 43.81057 | -79.15032 | 6004 ft | 221 kts | 330° |
| 2026-05-08 01:44 | 43.82417 | -79.15972 | 5989 ft | 215 kts | 329° |
| 2026-05-08 01:45 | 43.83711 | -79.16936 | 5983 ft | 207 kts | 324° |
| 2026-05-08 01:45 | 43.85047 | -79.17587 | 5943 ft | 209 kts | 359° |
| 2026-05-08 01:45 | 43.86354 | -79.16797 | 5949 ft | 210 kts | 45° |
| 2026-05-08 01:45 | 43.87248 | -79.15236 | 5906 ft | 205 kts | 40° |
| 2026-05-08 01:46 | 43.88568 | -79.14474 | 5391 ft | 213 kts | 355° |
| 2026-05-08 01:46 | 43.89889 | -79.15181 | 5026 ft | 212 kts | 312° |
| 2026-05-08 01:46 | 43.90492 | -79.16988 | 4670 ft | 210 kts | 271° |
| 2026-05-08 01:46 | 43.90332 | -79.18986 | 4317 ft | 209 kts | 262° |
| 2026-05-08 01:47 | 43.90101 | -79.20976 | 3926 ft | 210 kts | 260° |
| 2026-05-08 01:47 | 43.89586 | -79.22840 | 3502 ft | 212 kts | 239° |
| 2026-05-08 01:47 | 43.88827 | -79.24579 | 3226 ft | 208 kts | 239° |
| 2026-05-08 01:48 | 43.87371 | -79.27909 | 3043 ft | 199 kts | 239° |
| 2026-05-08 01:48 | 43.86656 | -79.29526 | 3019 ft | 194 kts | 239° |
| 2026-05-08 01:48 | 43.85952 | -79.31117 | 3008 ft | 198 kts | 239° |
| 2026-05-08 01:48 | 43.85213 | -79.32792 | 3019 ft | 209 kts | 239° |
| 2026-05-08 01:49 | 43.84436 | -79.34552 | 3035 ft | 219 kts | 239° |
| 2026-05-08 01:49 | 43.83626 | -79.36383 | 3044 ft | 228 kts | 239° |
| 2026-05-08 01:49 | 43.82779 | -79.38280 | 3044 ft | 235 kts | 237° |
| 2026-05-08 01:49 | 43.81724 | -79.39880 | 3118 ft | 208 kts | 221° |
| 2026-05-08 01:50 | 43.80657 | -79.41071 | 2890 ft | 187 kts | 219° |
| 2026-05-08 01:50 | 43.79684 | -79.42144 | 2699 ft | 174 kts | 220° |
| 2026-05-08 01:50 | 43.78756 | -79.43188 | 2525 ft | 173 kts | 222° |
| 2026-05-08 01:50 | 43.77813 | -79.44443 | 2530 ft | 203 kts | 227° |
| 2026-05-08 01:51 | 43.76913 | -79.45728 | 2780 ft | 167 kts | 228° |
| 2026-05-08 01:51 | 43.76114 | -79.46903 | 2712 ft | 167 kts | 229° |
| 2026-05-08 01:51 | 43.75372 | -79.48045 | 2644 ft | 152 kts | 230° |
| 2026-05-08 01:51 | 43.74663 | -79.49122 | 2389 ft | 151 kts | 229° |
| 2026-05-08 01:52 | 43.73969 | -79.50194 | 2193 ft | 150 kts | 231° |
| 2026-05-08 01:52 | 43.73259 | -79.51244 | 2026 ft | 150 kts | 228° |
| 2026-05-08 01:52 | 43.72556 | -79.52287 | 1840 ft | 147 kts | 230° |
| 2026-05-08 01:52 | 43.71881 | -79.53324 | 1648 ft | 145 kts | 230° |
| 2026-05-08 01:53 | 43.71198 | -79.54369 | 1478 ft | 148 kts | 230° |
| 2026-05-08 01:53 | 43.70488 | -79.55406 | 1337 ft | 150 kts | 227° |
| 2026-05-08 01:53 | 43.69773 | -79.56430 | 1166 ft | 147 kts | 228° |
| 2026-05-08 01:53 | 43.69077 | -79.57463 | 997 ft | 148 kts | 228° |
| 2026-05-08 01:54 | 43.68370 | -79.58494 | 823 ft | 147 kts | 226° |
| 2026-05-08 01:54 | 43.67676 | -79.59505 | 660 ft | 141 kts | 227° |
| 2026-05-08 01:54 | 43.67036 | -79.60437 | 568 ft | 119 kts | 227° |
| 2026-05-08 01:54 | 43.66594 | -79.61087 | 573 ft | 50 kts | 227° |
| 2026-05-08 01:55 | 43.66418 | -79.61442 | 571 ft | 42 kts | 251° |
| 2026-05-08 01:55 | 43.66374 | -79.61641 | 573 ft | 9 kts | 265° |
| 2026-05-08 01:55 | 43.66411 | -79.61736 | 567 ft | 13 kts | 315° |
| 2026-05-08 01:55 | 43.66477 | -79.61822 | 563 ft | 14 kts | 316° |
| 2026-05-08 01:56 | 43.66526 | -79.61887 | 564 ft | 6 kts | 316° |
| 2026-05-08 01:56 | 43.66563 | -79.61935 | 558 ft | 0 kts | 316° |
| 2026-05-08 01:56 | 43.66572 | -79.61948 | 557 ft | 4 kts | 316° |
| 2026-05-08 01:56 | 43.66575 | -79.61952 | 557 ft | 0 kts | 316° |
| 2026-05-08 01:57 | 43.66580 | -79.61958 | 560 ft | 2 kts | 316° |
| 2026-05-08 01:57 | 43.66599 | -79.61983 | 557 ft | 5 kts | 316° |
| 2026-05-08 01:57 | 43.66637 | -79.62015 | 561 ft | 7 kts | 352° |
| 2026-05-08 01:58 | 43.66687 | -79.61987 | 555 ft | 9 kts | 39° |
| 2026-05-08 01:58 | 43.66738 | -79.61923 | 554 ft | 11 kts | 43° |
| 2026-05-08 01:58 | 43.66797 | -79.61849 | 562 ft | 12 kts | 42° |
| 2026-05-08 01:58 | 43.66856 | -79.61774 | 556 ft | 13 kts | 42° |
| 2026-05-08 01:59 | 43.66930 | -79.61680 | 558 ft | 15 kts | 42° |
| 2026-05-08 01:59 | 43.67007 | -79.61583 | 562 ft | 14 kts | 44° |
| 2026-05-08 01:59 | 43.67078 | -79.61493 | 560 ft | 14 kts | 43° |
| 2026-05-08 01:59 | 43.67157 | -79.61393 | 565 ft | 16 kts | 42° |
| 2026-05-08 02:00 | 43.67222 | -79.61290 | 560 ft | 11 kts | 52° |
| 2026-05-08 02:00 | 43.67293 | -79.61287 | 561 ft | 13 kts | 324° |
| 2026-05-08 02:00 | 43.67371 | -79.61385 | 557 ft | 16 kts | 317° |
| 2026-05-08 02:00 | 43.67456 | -79.61494 | 558 ft | 17 kts | 316° |
| 2026-05-08 02:01 | 43.67548 | -79.61614 | 560 ft | 19 kts | 316° |
| 2026-05-08 02:01 | 43.67643 | -79.61737 | 563 ft | 19 kts | 316° |
| 2026-05-08 02:01 | 43.67747 | -79.61876 | 562 ft | 22 kts | 316° |
| 2026-05-08 02:01 | 43.67816 | -79.61966 | 561 ft | 12 kts | 316° |
| 2026-05-08 02:02 | 43.67891 | -79.62052 | 559 ft | 16 kts | 335° |
| 2026-05-08 02:02 | 43.67995 | -79.62133 | 561 ft | 18 kts | 318° |
| 2026-05-08 02:02 | 43.68090 | -79.62255 | 562 ft | 20 kts | 316° |
| 2026-05-08 02:02 | 43.68190 | -79.62387 | 568 ft | 20 kts | 317° |
| 2026-05-08 02:03 | 43.68299 | -79.62514 | 565 ft | 21 kts | 317° |
| 2026-05-08 02:03 | 43.68378 | -79.62619 | 566 ft | 11 kts | 316° |
| 2026-05-08 02:03 | 43.68441 | -79.62689 | 571 ft | 12 kts | 344° |
| 2026-05-08 02:03 | 43.68517 | -79.62628 | 565 ft | 14 kts | 46° |
| 2026-05-08 02:04 | 43.68589 | -79.62524 | 568 ft | 17 kts | 49° |
| 2026-05-08 02:04 | 43.68634 | -79.62441 | 569 ft | 9 kts | 54° |
| 2026-05-08 02:04 | 43.68640 | -79.62425 | 571 ft | 4 kts | 78° |
| 2026-05-08 02:04 | 43.68629 | -79.62382 | 567 ft | 6 kts | 110° |
| 2026-05-08 02:05 | 43.68605 | -79.62338 | 569 ft | 5 kts | 139° |
| 2026-05-08 02:05 | 43.68602 | -79.62334 | 568 ft | 0 kts | 143° |